• Join FlightAware (Why Join?)
  • Login
  • US Flag 
09:46PM EDT


 

Airport Tracker/Info


-or-


 

Live Flight TrackerFlight Track Log ✈ ANE8817 ✈ 18-Jul-2013 ✈ LIMF / TRN - LEMD / MAD

Flight Track Log - Related Links

Times and Time Zones

All times are in EDT time to prevent confusion due to time zone crossing. See the ANE8817 flight status page for this flight to view local times or setup timezone preferences in your user account.

Time Position Orientation Groundspeed Altitude Reporting Facility
EDT Latitude Longitude Course Direction KTS MPH feet Rate Location/Type
02:47AM 44.3672 5.3148 244° Southwest  Level Estimated
02:48AM 44.3220 5.1938 242° Southwest  Level Estimated
02:49AM 44.2767 5.0730 242° Southwest  Level Estimated
02:50AM 44.2313 4.9524 242° Southwest  Level Estimated
02:51AM 44.1857 4.8319 242° Southwest  Level Estimated
02:52AM 44.1400 4.7116 242° Southwest  Level Estimated
02:53AM 44.0942 4.5915 242° Southwest  Level Estimated
02:54AM 44.0483 4.4716 242° Southwest  Level Estimated
02:55AM 44.0022 4.3519 242° Southwest  Level Estimated
02:56AM 43.9560 4.2324 242° Southwest  Level Estimated
02:57AM 43.9097 4.1131 242° Southwest  Level Estimated
02:58AM 43.8633 3.9939 242° Southwest  Level Estimated
02:59AM 43.8167 3.8749 242° Southwest  Level Estimated
03:00AM 43.7700 3.7562 241° Southwest  Level Estimated
03:01AM 43.7232 3.6376 241° Southwest  Level Estimated
03:02AM 43.6763 3.5192 241° Southwest  Level Estimated
03:03AM 43.6293 3.4009 241° Southwest  Level Estimated
03:04AM 43.5821 3.2829 241° Southwest  Level Estimated
03:05AM 43.5348 3.1650 241° Southwest  Level Estimated
03:06AM 43.4874 3.0473 241° Southwest  Level Estimated
03:07AM 43.4399 2.9299 241° Southwest  Level Estimated
03:08AM 43.3922 2.8126 241° Southwest  Level Estimated
03:09AM 43.3444 2.6954 241° Southwest  Level Estimated
03:10AM 43.2966 2.5785 241° Southwest  Level Estimated
03:11AM 43.2485 2.4618 241° Southwest  Level Estimated
03:12AM 43.2004 2.3452 241° Southwest  Level Estimated
03:13AM 43.1522 2.2288 240° Southwest  Level Estimated
03:14AM 43.1038 2.1126 240° Southwest  Level Estimated
03:15AM 43.0553 1.9966 240° Southwest  Level Estimated
03:16AM 43.0067 1.8808 240° Southwest  Level Estimated
03:17AM 42.9580 1.7651 240° Southwest  Level Estimated
03:18AM 42.9092 1.6497 240° Southwest  Level Estimated
03:19AM 42.8602 1.5344 240° Southwest  Level Estimated
03:20AM 42.8111 1.4193 240° Southwest  Level Estimated
03:21AM 42.7620 1.3044 240° Southwest  Level Estimated
03:22AM 42.7127 1.1897 240° Southwest  Level Estimated
03:23AM 42.6633 1.0751 240° Southwest  Level Estimated
03:24AM 42.6138 0.9607 240° Southwest  Level Estimated
03:25AM 42.5641 0.8465 239° Southwest  Level Estimated
03:26AM 42.5144 0.7325 239° Southwest  Level Estimated
03:27AM 42.4645 0.6187 239° Southwest  Level Estimated
03:28AM 42.4145 0.5051 239° Southwest  Level Estimated
03:29AM 42.3644 0.3916 239° Southwest  Level Estimated
03:30AM 42.3142 0.2783 239° Southwest  Level Estimated
03:31AM 42.2639 0.1652 239° Southwest  Level Estimated
03:32AM 42.2135 0.0523 239° Southwest  Level Estimated
03:33AM 42.1630 -0.0604 239° Southwest  Level Estimated
03:34AM 42.1123 -0.1730 239° Southwest  Level Estimated
03:35AM 42.0616 -0.2854 239° Southwest  Level Estimated
03:36AM 42.0107 -0.3976 239° Southwest  Level Estimated
03:37AM 41.9598 -0.5096 239° Southwest  Level Estimated
03:38AM 41.9087 -0.6214 238° Southwest  Level Estimated
03:39AM 41.8575 -0.7331 238° Southwest  Level Estimated
03:40AM 41.8062 -0.8446 238° Southwest  Level Estimated
03:41AM 41.7548 -0.9559 238° Southwest  Level Estimated
03:42AM 41.7033 -1.0670 238° Southwest  Level Estimated
03:43AM 41.6517 -1.1779 238° Southwest  Level Estimated
03:44AM 41.5999 -1.2887 238° Southwest  Level Estimated
03:45AM 41.5481 -1.3993 238° Southwest  Level Estimated
03:46AM 41.4962 -1.5097 238° Southwest  Level Estimated
03:47AM 41.4441 -1.6199 238° Southwest  Level Estimated
03:48AM 41.3920 -1.7300 238° Southwest  Level Estimated
03:49AM 41.3397 -1.8399 238° Southwest  Level Estimated
03:50AM 41.2874 -1.9496 238° Southwest  Level Estimated
03:51AM 41.2349 -2.0591 238° Southwest  Level Estimated
03:52AM 41.1824 -2.1685 237° Southwest  Level Estimated
03:53AM 41.1297 -2.2777 237° Southwest  Level Estimated
03:54AM 41.0769 -2.3867 237° Southwest  Level Estimated
03:55AM 41.0241 -2.4955 237° Southwest  Level Estimated
03:56AM 40.9711 -2.6041 237° Southwest  Level Estimated
03:57AM 40.9180 -2.7126 237° Southwest  Level Estimated
03:58AM 40.8648 -2.8209 237° Southwest  Level Estimated
03:59AM 40.8116 -2.9290 237° Southwest  Level Estimated
04:00AM 40.7582 -3.0370 237° Southwest  Level Estimated
04:01AM 40.7047 -3.1448 237° Southwest  Level Estimated
04:02AM 40.6511 -3.2524 237° Southwest  Level Estimated
04:03AM 40.5975 -3.3598 237° Southwest  Level Estimated
04:04AM 40.5437 -3.4671 237° Southwest  Level Estimated
04:05AM 40.4936 -3.5668 237° Southwest  Level Estimated
04:06AM 40.4936 -3.5668 217° Southwest  Level Estimated
04:07AM 40.4936 -3.5668 217° Southwest  Level Estimated
04:08AM 40.4936 -3.5668 217° Southwest  Level Estimated
04:09AM 40.4936 -3.5668 217° Southwest  Level Estimated
04:10AM 40.4936 -3.5668 217° Southwest  Level Estimated
04:11AM 40.4936 -3.5668 217° Southwest  Level Estimated
04:12AM 40.4936 -3.5668 217° Southwest  Level Estimated
04:13AM 40.4936 -3.5668 217° Southwest  Level Estimated
04:14AM 40.4936 -3.5668 217° Southwest  Level Estimated
04:15AM 40.4936 -3.5668 217° Southwest  Level Estimated
04:16AM 40.4936 -3.5668 217° Southwest  Level Estimated
04:17AM 40.4936 -3.5668 217° Southwest  Level Estimated
04:18AM 40.4936 -3.5668 217° Southwest  Level Estimated
04:19AM 40.4936 -3.5668 217° Southwest  Level Estimated
04:20AM 40.4936 -3.5668 217° Southwest  Level Estimated
04:21AM 40.4936 -3.5668 217° Southwest  Level Estimated